TimeCST,TemperatureF,Dew PointF,Humidity,Sea Level PressureIn,VisibilityMPH,Wind Direction,Wind SpeedMPH,Gust SpeedMPH,PrecipitationIn,Events,Conditions,WindDirDegrees,DateUTC
12:56 AM,30.0,26.1,85,30.03,10.0,SE,6.9,-,N/A,,Clear,130,2013-03-03 06:56:00
1:56 AM,30.0,26.1,85,30.01,10.0,SE,6.9,-,N/A,,Clear,140,2013-03-03 07:56:00
2:56 AM,28.0,25.0,88,29.98,9.0,SSE,5.8,-,N/A,,Clear,150,2013-03-03 08:56:00
3:56 AM,28.0,25.0,88,29.95,8.0,ESE,5.8,-,N/A,,Clear,120,2013-03-03 09:56:00
4:56 AM,26.1,24.1,92,29.96,7.0,SE,5.8,-,N/A,,Clear,130,2013-03-03 10:56:00
5:56 AM,26.1,23.0,88,29.95,8.0,ESE,6.9,-,N/A,,Clear,120,2013-03-03 11:56:00
6:56 AM,26.1,23.0,88,29.94,8.0,ESE,8.1,-,N/A,,Clear,120,2013-03-03 12:56:00
7:56 AM,27.0,24.1,89,29.93,6.0,SE,6.9,-,N/A,,Clear,140,2013-03-03 13:56:00
8:56 AM,30.0,25.0,82,29.92,7.0,SE,8.1,-,N/A,,Clear,130,2013-03-03 14:56:00
9:56 AM,33.1,26.1,75,29.90,9.0,SE,9.2,-,N/A,,Clear,140,2013-03-03 15:56:00
10:56 AM,36.0,28.0,73,29.87,10.0,SE,11.5,-,N/A,,Clear,130,2013-03-03 16:56:00
11:56 AM,37.9,28.9,70,29.84,10.0,ESE,11.5,-,N/A,,Clear,120,2013-03-03 17:56:00
12:56 PM,41.0,30.0,65,29.81,10.0,ESE,16.1,-,N/A,,Partly Cloudy,120,2013-03-03 18:56:00
1:56 PM,41.0,30.0,65,29.79,9.0,SSE,15.0,-,N/A,,Clear,150,2013-03-03 19:56:00
2:56 PM,39.9,30.0,68,29.76,9.0,ESE,15.0,-,N/A,,Scattered Clouds,120,2013-03-03 20:56:00
3:56 PM,39.0,30.0,70,29.75,8.0,ESE,15.0,23.0,N/A,,Overcast,120,2013-03-03 21:56:00
4:56 PM,37.0,28.9,73,29.70,8.0,ESE,21.9,28.8,N/A,,Overcast,120,2013-03-03 22:56:00
5:56 PM,37.0,28.0,70,29.72,9.0,SE,15.0,27.6,N/A,,Overcast,130,2013-03-03 23:56:00
6:56 PM,36.0,28.0,73,29.73,10.0,SE,12.7,-,N/A,,Scattered Clouds,130,2013-03-04 00:56:00
7:56 PM,35.1,28.0,76,29.74,9.0,SE,16.1,-,N/A,,Clear,130,2013-03-04 01:56:00
8:56 PM,34.0,27.0,75,29.72,9.0,SE,15.0,-,N/A,,Mostly Cloudy,130,2013-03-04 02:56:00
9:56 PM,34.0,27.0,75,29.71,9.0,SE,18.4,24.2,N/A,,Partly Cloudy,130,2013-03-04 03:56:00
10:56 PM,33.1,27.0,78,29.68,8.0,SE,17.3,-,N/A,,Clear,130,2013-03-04 04:56:00
11:56 PM,32.0,26.1,79,29.68,8.0,SE,17.3,-,N/A,,Mostly Cloudy,140,2013-03-04 05:56:00